Whiting Field Naval Air Station South Airport
KNDZ : now visible

Airfield :











YOU CAN JOIN US ON...

 
LOGIN :

Register | Disclaimer

   EN    FR    IT 

 









Legend :    VFR   Marginal VFR   IFR   Intensive IFR   Very Intensive IFR
Visi :
Ceiling :
>= 8 km
>= 3000ft
5 to 8 km
1000 to 3000 ft
1500m to 5 km
500 to 1000 ft
800 to 1500m
200 to 500 ft
< 800m
< 200 ft
Symbols :   Thunderstorms  Fog  Heavy snow  Heavy precipitations  Wind > 20 kt






- Airport Elevation : 177 ft


KNDZ - Whiting Field Naval Air Station South

CURRENT METAR :
  • 171956Z AUTO 16003KT 10SM FEW017 21/14 A3002 RMK AO2 SLP152 T02060144 PNO $

EXPIRED METARs :
  • 171951Z AUTO 00000KT 10SM SCT017 21/14 A3002 RMK AO2 PNO $
  • 171856Z AUTO 20005KT 10SM OVC015 19/14 A3004 RMK AO2 SLP159 T01940144 PNO $
  • 171851Z AUTO VRB05KT 10SM OVC015 19/14 A3004 RMK AO2 PNO $
  • 171820Z AUTO VRB03KT 10SM OVC011 18/14 A3005 RMK AO2 T01830144 PNO $
  • 171756Z AUTO 19004KT 10SM OVC007 18/14 A3006 RMK AO2 CIG 006V010 SLP165 6//// T01780144 10178 20133 58003 PNO $

TAF N/A



MET'MAP, your aeronautical weather chart ! - Copyright ORBIFLY December 2007 - Disclaimer

ORBIFLY MET'MAP TEAM :

Programming & Development : Alexandra Zaïnal
Concept & original design : Baudouin d'Aumeries
Assistance for programming : Marc-Olivier Méhu
Technical & hardware support : Manuel Goepfert

Contact : metmap@orbifly.com




SOURCES & CREDITS :

   NOAA       Earth
Advisory